Time;durP1;ratioP1;P1;durP2;ratioP2;P2;SDS_P1;SDS_P2;PMS_P1;PMS_P2;Temp;Humidity;BMP_temperature;BMP_pressure;BME280_temperature;BME280_humidity;BME280_pressure;Samples;Min_cycle;Max_cycle;Signal;HPM_P1;HPM_P2
2023/07/16 00:02:12;;;;;;;4.03;3.20;;;;;;;22.68;79.51;100126.16;5034426;28;20265;-84
2023/07/16 00:04:40;;;;;;;3.33;2.97;;;;;;;22.67;79.65;100129.91;5032971;28;20221;-84
2023/07/16 00:07:07;;;;;;;2.90;2.53;;;;;;;22.66;79.73;100128.22;5033994;28;20622;-85
2023/07/16 00:09:35;;;;;;;2.83;2.50;;;;;;;22.64;79.91;100127.56;5032978;28;20202;-85
2023/07/16 00:12:03;;;;;;;3.45;2.95;;;;;;;22.62;80.06;100142.34;5036864;28;20206;-84
2023/07/16 00:14:31;;;;;;;3.63;2.83;;;;;;;22.60;80.25;100153.38;5032191;28;20273;-84
2023/07/16 00:16:58;;;;;;;2.83;2.63;;;;;;;22.61;80.52;100148.78;5033770;28;20252;-84
2023/07/16 00:19:30;;;;;;;3.38;3.08;;;;;;;22.56;80.61;100143.94;5033468;28;20217;-84
2023/07/16 00:21:56;;;;;;;3.30;2.97;;;;;;;22.54;80.73;100151.44;5033891;28;20681;-84
2023/07/16 00:24:26;;;;;;;3.58;2.85;;;;;;;22.53;80.73;100144.31;5029445;28;20733;-84
2023/07/16 00:26:53;;;;;;;3.63;3.00;;;;;;;22.51;80.71;100130.09;5028050;28;20210;-84
2023/07/16 00:29:19;;;;;;;3.42;3.13;;;;;;;22.50;80.60;100118.38;5030912;28;20214;-84
2023/07/16 00:31:46;;;;;;;3.45;3.00;;;;;;;22.46;80.36;100116.22;5027743;28;20229;-84
2023/07/16 00:34:14;;;;;;;4.25;2.65;;;;;;;22.43;80.36;100130.16;5031051;28;20202;-84
2023/07/16 00:36:42;;;;;;;3.50;2.97;;;;;;;22.40;80.11;100128.66;5034219;28;20293;-84
2023/07/16 00:39:10;;;;;;;4.80;3.78;;;;;;;22.40;80.00;100117.81;5030957;28;20215;-84
2023/07/16 00:41:36;;;;;;;4.25;3.08;;;;;;;22.39;80.01;100089.00;5033351;28;20298;-84
2023/07/16 00:44:03;;;;;;;3.83;3.10;;;;;;;22.37;79.85;100046.81;5033373;28;20234;-85
2023/07/16 00:46:32;;;;;;;3.50;3.13;;;;;;;22.33;80.02;100035.50;5033308;28;20244;-84
2023/07/16 00:48:58;;;;;;;5.15;2.97;;;;;;;22.32;80.19;100030.25;5033697;28;20228;-85
2023/07/16 00:51:28;;;;;;;2.63;2.42;;;;;;;22.26;80.17;100055.41;5030683;28;20246;-84
2023/07/16 00:53:55;;;;;;;2.67;2.42;;;;;;;22.24;80.25;100077.28;5032808;28;20589;-84
2023/07/16 00:56:23;;;;;;;3.70;2.67;;;;;;;22.20;80.42;100105.84;5034777;28;20221;-84
2023/07/16 00:58:49;;;;;;;3.72;2.83;;;;;;;22.17;80.82;100104.34;5034698;28;20206;-84
2023/07/16 01:01:16;;;;;;;3.67;3.00;;;;;;;22.15;80.55;100114.53;5032519;28;20846;-84
2023/07/16 01:03:44;;;;;;;4.90;2.65;;;;;;;22.13;80.58;100132.00;5031690;28;20202;-84
2023/07/16 01:06:15;;;;;;;2.72;2.45;;;;;;;22.08;80.52;100148.81;5033555;28;20202;-84
2023/07/16 01:08:43;;;;;;;4.50;2.45;;;;;;;22.03;80.22;100139.56;5032589;28;20213;-84
2023/07/16 01:11:13;;;;;;;2.95;1.90;;;;;;;21.96;80.17;100142.13;5032536;28;20352;-84
2023/07/16 01:13:40;;;;;;;2.50;2.20;;;;;;;21.90;80.02;100142.84;5033089;28;20206;-85
2023/07/16 01:16:19;;;;;;;1.80;1.58;;;;;;;21.83;79.79;100137.34;5032326;28;20202;-84
2023/07/16 01:18:47;;;;;;;1.85;1.75;;;;;;;21.76;79.71;100149.06;5021591;28;20659;-84
2023/07/16 01:21:14;;;;;;;2.08;1.73;;;;;;;21.73;79.89;100154.84;5030281;28;20254;-86
2023/07/16 01:24:01;;;;;;;2.95;1.92;;;;;;;21.71;79.85;100138.78;5032146;28;20233;-85
2023/07/16 01:26:44;;;;;;;2.65;1.50;;;;;;;21.66;79.67;100168.31;5032307;28;20259;-85
2023/07/16 01:29:31;;;;;;;3.20;1.83;;;;;;;21.65;79.66;100171.19;5029065;28;20696;-85
2023/07/16 01:32:00;;;;;;;2.45;1.80;;;;;;;21.63;80.04;100189.50;5019919;28;20267;-85
2023/07/16 01:34:30;;;;;;;2.55;1.70;;;;;;;21.61;79.82;100172.56;5031704;28;20207;-85
2023/07/16 01:36:57;;;;;;;4.03;1.70;;;;;;;21.56;80.10;100169.53;5031729;28;20220;-85
2023/07/16 01:39:24;;;;;;;3.28;1.80;;;;;;;21.47;80.37;100191.28;5032282;28;20194;-84
2023/07/16 01:41:50;;;;;;;3.20;2.20;;;;;;;21.38;80.72;100181.50;5031812;28;20229;-84
2023/07/16 01:44:17;;;;;;;6.28;2.50;;;;;;;21.31;81.09;100167.00;5031247;28;20582;-84
2023/07/16 01:46:44;;;;;;;5.53;2.17;;;;;;;21.22;81.87;100189.72;5024845;28;20213;-86
2023/07/16 01:49:11;;;;;;;8.30;2.57;;;;;;;21.12;82.60;100200.75;5025607;28;20202;-86
2023/07/16 01:51:37;;;;;;;4.43;1.73;;;;;;;21.01;82.95;100190.28;5029145;28;20250;-84
2023/07/16 01:54:04;;;;;;;3.40;1.70;;;;;;;20.91;83.53;100191.53;5026806;28;20199;-84
2023/07/16 01:56:30;;;;;;;2.90;1.50;;;;;;;20.79;84.30;100181.06;5022620;28;20208;-84
2023/07/16 01:58:57;;;;;;;2.30;1.63;;;;;;;20.73;84.86;100167.41;5031123;28;20205;-84
2023/07/16 02:01:23;;;;;;;1.87;1.57;;;;;;;20.66;85.42;100161.81;5030709;28;20220;-85
2023/07/16 02:03:51;;;;;;;2.67;1.60;;;;;;;20.63;86.10;100139.69;5029096;28;20216;-85
2023/07/16 02:06:18;;;;;;;2.50;1.60;;;;;;;20.61;86.63;100133.59;5023909;28;20197;-84
2023/07/16 02:08:44;;;;;;;2.70;1.58;;;;;;;20.60;87.67;100146.28;5030274;28;20215;-85
2023/07/16 02:11:10;;;;;;;3.05;1.83;;;;;;;20.60;88.21;100153.56;5025928;28;20232;-85
2023/07/16 02:13:37;;;;;;;2.87;1.90;;;;;;;20.61;88.95;100171.47;5029982;28;20214;-86
2023/07/16 02:16:04;;;;;;;5.80;2.00;;;;;;;20.60;88.80;100181.44;5030345;28;20205;-85
2023/07/16 02:18:30;;;;;;;3.45;1.85;;;;;;;20.57;89.01;100180.97;5024473;28;20209;-86
2023/07/16 02:20:59;;;;;;;4.27;1.80;;;;;;;20.57;89.68;100180.97;5029389;28;20240;-85
2023/07/16 02:23:29;;;;;;;2.30;1.70;;;;;;;20.56;90.35;100196.38;5030936;28;20219;-86
2023/07/16 02:25:56;;;;;;;2.10;1.60;;;;;;;20.56;90.29;100203.63;5030907;28;20216;-86
2023/07/16 02:28:22;;;;;;;2.58;1.70;;;;;;;20.53;90.62;100199.41;5022728;28;20212;-86
2023/07/16 02:30:50;;;;;;;2.70;1.88;;;;;;;20.51;90.95;100189.78;5031077;28;20231;-86
2023/07/16 02:33:16;;;;;;;3.23;2.10;;;;;;;20.49;91.01;100189.94;5037972;28;20225;-87
2023/07/16 02:35:47;;;;;;;2.38;1.95;;;;;;;20.48;91.45;100180.13;5032182;28;20212;-87
2023/07/16 02:38:17;;;;;;;3.30;1.83;;;;;;;20.47;91.98;100197.38;5031945;28;20192;-86
2023/07/16 02:40:47;;;;;;;3.33;1.43;;;;;;;20.47;91.98;100196.53;5032857;28;20229;-86
2023/07/16 02:43:14;;;;;;;2.13;1.73;;;;;;;20.45;92.06;100197.53;5032445;28;20209;-87
2023/07/16 02:45:41;;;;;;;2.40;1.80;;;;;;;20.41;91.67;100196.22;5032109;28;20232;-87
2023/07/16 02:48:08;;;;;;;3.33;1.80;;;;;;;20.40;91.94;100208.06;5031241;28;20208;-87
2023/07/16 02:50:35;;;;;;;3.30;1.93;;;;;;;20.37;92.17;100203.00;5032071;28;20231;-86
2023/07/16 02:53:01;;;;;;;2.07;1.70;;;;;;;20.33;91.81;100217.81;5031819;28;20208;-86
2023/07/16 02:55:29;;;;;;;3.67;1.90;;;;;;;20.29;91.69;100211.06;5031447;28;20660;-85
2023/07/16 02:57:56;;;;;;;4.73;2.17;;;;;;;20.23;91.61;100200.09;5034058;28;20284;-86
2023/07/16 03:00:23;;;;;;;3.87;2.00;;;;;;;20.16;91.81;100201.78;5035630;28;20236;-86
2023/07/16 03:02:49;;;;;;;4.00;1.87;;;;;;;20.13;92.20;100199.41;5035249;28;20598;-87
2023/07/16 03:05:17;;;;;;;4.07;1.80;;;;;;;20.08;92.44;100203.47;5034895;28;20594;-87
2023/07/16 03:07:44;;;;;;;4.23;2.00;;;;;;;20.06;92.56;100210.06;5035807;28;20299;-86
2023/07/16 03:10:10;;;;;;;5.40;2.70;;;;;;;20.03;92.86;100222.06;5035840;28;20234;-86
2023/07/16 03:12:39;;;;;;;5.33;2.07;;;;;;;20.02;93.09;100228.50;5036162;28;20208;-85
2023/07/16 03:15:07;;;;;;;2.80;1.83;;;;;;;20.01;92.79;100224.09;5035545;28;20208;-85
2023/07/16 03:17:33;;;;;;;2.17;1.90;;;;;;;19.98;92.73;100228.97;5036035;28;20572;-85
2023/07/16 03:20:00;;;;;;;2.53;1.60;;;;;;;19.96;92.78;100241.81;5035879;28;20231;-85
2023/07/16 03:22:27;;;;;;;2.30;1.70;;;;;;;19.92;92.92;100244.00;5019480;28;20203;-85
2023/07/16 03:24:53;;;;;;;2.77;1.90;;;;;;;19.88;92.88;100245.38;5035520;28;20232;-86
2023/07/16 03:27:20;;;;;;;2.90;1.70;;;;;;;19.87;93.03;100249.09;5035645;28;20203;-86
2023/07/16 03:29:49;;;;;;;3.60;1.70;;;;;;;19.83;92.75;100250.41;5035775;28;20211;-85
2023/07/16 03:32:16;;;;;;;3.67;1.90;;;;;;;19.79;91.78;100262.56;5037644;28;20625;-86
2023/07/16 03:34:42;;;;;;;3.20;1.73;;;;;;;19.72;91.30;100258.81;5036638;28;20209;-84
2023/07/16 03:37:11;;;;;;;2.53;1.63;;;;;;;19.68;90.63;100265.59;5036198;28;20208;-86
2023/07/16 03:39:38;;;;;;;2.00;1.47;;;;;;;19.61;90.21;100265.38;5036578;28;20676;-86
2023/07/16 03:42:05;;;;;;;3.83;1.60;;;;;;;19.57;89.89;100260.47;5037137;28;20606;-85
2023/07/16 03:44:32;;;;;;;3.23;1.30;;;;;;;19.51;89.49;100266.56;5036682;28;20191;-85
2023/07/16 03:47:02;;;;;;;2.10;1.33;;;;;;;19.46;89.08;100263.47;5037720;28;20223;-86
2023/07/16 03:49:28;;;;;;;5.50;1.90;;;;;;;19.41;89.07;100264.78;5038062;28;20263;-86
2023/07/16 03:51:57;;;;;;;5.07;1.77;;;;;;;19.37;88.91;100274.22;5038417;28;20246;-86
2023/07/16 03:54:25;;;;;;;5.07;1.60;;;;;;;19.34;88.53;100277.28;5038077;28;20208;-86
2023/07/16 03:56:53;;;;;;;5.13;1.80;;;;;;;19.31;88.60;100279.44;5038030;28;20701;-85
2023/07/16 03:59:19;;;;;;;4.13;2.10;;;;;;;19.27;88.71;100278.91;5038517;28;20626;-86
2023/07/16 04:01:46;;;;;;;2.80;1.40;;;;;;;19.25;88.71;100274.69;5038716;28;20232;-86
2023/07/16 04:04:13;;;;;;;2.80;1.67;;;;;;;19.22;88.71;100281.25;5037765;28;20211;-85
2023/07/16 04:06:40;;;;;;;3.73;1.70;;;;;;;19.18;89.02;100274.47;5037985;28;20240;-85
2023/07/16 04:09:06;;;;;;;2.77;1.47;;;;;;;19.15;89.49;100277.50;5035431;28;20209;-86
2023/07/16 04:11:35;;;;;;;2.10;1.70;;;;;;;19.15;89.50;100285.63;5036773;28;20259;-86
2023/07/16 04:14:01;;;;;;;3.43;1.83;;;;;;;19.09;89.36;100286.25;5037259;28;20209;-85
2023/07/16 04:16:32;;;;;;;4.07;2.10;;;;;;;19.08;89.64;100298.03;5037292;28;20706;-85
2023/07/16 04:18:58;;;;;;;2.70;1.43;;;;;;;19.05;89.84;100307.31;5035792;28;20299;-86
2023/07/16 04:21:26;;;;;;;3.80;1.73;;;;;;;19.03;89.95;100314.72;5035614;28;20236;-85
2023/07/16 04:23:54;;;;;;;3.60;1.50;;;;;;;18.98;90.32;100314.38;5035670;28;20581;-86
2023/07/16 04:26:20;;;;;;;2.67;1.63;;;;;;;18.99;90.32;100323.28;5035446;28;20674;-86
2023/07/16 04:28:47;;;;;;;2.50;1.50;;;;;;;18.98;90.56;100324.31;5035574;28;20212;-86
2023/07/16 04:31:16;;;;;;;3.77;1.80;;;;;;;18.95;90.64;100316.53;5034960;28;20243;-85
2023/07/16 04:33:43;;;;;;;2.50;1.70;;;;;;;18.93;90.83;100337.44;5034900;28;20219;-85
2023/07/16 04:36:09;;;;;;;4.03;1.60;;;;;;;18.95;90.94;100344.38;5034641;28;20304;-85
2023/07/16 04:41:18;;;;;;;3.23;1.70;;;;;;;18.94;91.15;100349.91;5032708;28;20875;-85
2023/07/16 04:43:46;;;;;;;3.13;1.60;;;;;;;18.95;91.10;100347.06;5034095;28;20205;-84
2023/07/16 04:46:12;;;;;;;4.97;1.80;;;;;;;18.95;91.37;100354.31;5033749;28;20262;-85
2023/07/16 04:48:40;;;;;;;3.20;1.60;;;;;;;18.95;91.43;100359.72;5034080;28;20209;-85
2023/07/16 04:53:51;;;;;;;2.50;1.80;;;;;;;18.97;91.25;100363.94;5032779;28;20562;-85
2023/07/16 04:56:20;;;;;;;3.43;2.00;;;;;;;19.00;91.12;100362.75;5034198;28;20617;-86
2023/07/16 04:58:47;;;;;;;2.50;1.40;;;;;;;19.00;91.15;100371.69;5033319;28;20300;-86
2023/07/16 05:01:15;;;;;;;5.63;1.80;;;;;;;19.03;91.28;100373.25;5033313;28;20240;-86
2023/07/16 05:03:42;;;;;;;4.83;1.97;;;;;;;19.04;91.00;100374.94;5033542;28;20213;-86
2023/07/16 05:06:08;;;;;;;1.70;1.33;;;;;;;19.05;90.90;100368.53;5033689;28;20217;-86
2023/07/16 05:08:35;;;;;;;1.67;1.30;;;;;;;19.05;90.61;100374.78;5033652;28;20213;-86
2023/07/16 05:11:03;;;;;;;3.33;1.50;;;;;;;19.05;90.33;100377.47;5033133;28;20229;-85
2023/07/16 05:13:29;;;;;;;3.70;1.70;;;;;;;19.08;90.23;100379.03;5033728;28;20214;-85
2023/07/16 05:15:56;;;;;;;2.73;1.77;;;;;;;19.08;90.28;100382.56;5033057;28;20220;-84
2023/07/16 05:18:24;;;;;;;3.23;1.77;;;;;;;19.13;89.79;100383.97;5025208;28;20209;-85
2023/07/16 05:20:50;;;;;;;1.60;1.50;;;;;;;19.16;89.61;100384.50;5032196;28;20256;-85
2023/07/16 05:23:17;;;;;;;3.77;1.90;;;;;;;19.20;89.50;100383.16;5030976;28;20213;-85
2023/07/16 05:25:47;;;;;;;2.17;1.50;;;;;;;19.26;89.10;100390.63;5025779;28;20240;-85
2023/07/16 05:28:15;;;;;;;2.17;1.33;;;;;;;19.32;88.76;100394.53;5030915;28;20232;-85
2023/07/16 05:30:41;;;;;;;2.30;1.67;;;;;;;19.35;88.75;100395.03;5027759;28;20233;-85
2023/07/16 05:33:08;;;;;;;2.50;1.50;;;;;;;19.41;88.63;100394.41;5032191;28;20208;-86
2023/07/16 05:35:34;;;;;;;6.90;1.77;;;;;;;19.46;88.49;100409.31;5030668;28;20221;-85
2023/07/16 05:38:01;;;;;;;3.33;1.70;;;;;;;19.53;88.26;100404.97;5028538;28;20217;-84
2023/07/16 05:40:27;;;;;;;2.80;1.40;;;;;;;19.59;88.27;100407.88;5032139;28;20582;-85
2023/07/16 05:42:54;;;;;;;2.87;1.60;;;;;;;19.68;88.22;100406.09;5022962;28;20220;-85
2023/07/16 05:45:23;;;;;;;5.00;2.10;;;;;;;19.79;88.61;100413.91;5013792;28;20223;-85
2023/07/16 05:47:49;;;;;;;3.53;1.70;;;;;;;19.87;88.35;100413.09;5027965;28;20708;-85
2023/07/16 05:50:16;;;;;;;2.43;1.80;;;;;;;19.95;88.31;100413.97;5023572;28;20314;-84
2023/07/16 05:52:42;;;;;;;3.37;1.53;;;;;;;20.06;87.73;100415.53;5028474;28;20676;-85
2023/07/16 05:55:09;;;;;;;2.30;1.70;;;;;;;20.19;87.25;100425.88;5031559;28;20213;-84
2023/07/16 05:57:35;;;;;;;3.40;1.70;;;;;;;20.29;86.58;100427.41;5032109;28;20212;-86
2023/07/16 06:00:04;;;;;;;4.57;2.03;;;;;;;20.39;85.71;100430.88;5022581;28;20228;-84
2023/07/16 06:02:32;;;;;;;4.07;1.50;;;;;;;20.50;84.65;100424.28;5029164;28;20207;-86
2023/07/16 06:04:59;;;;;;;2.97;1.63;;;;;;;20.63;84.01;100435.44;5031479;28;20593;-84
2023/07/16 06:07:25;;;;;;;4.23;1.50;;;;;;;20.74;82.10;100428.88;5031062;28;20218;-85
2023/07/16 06:09:52;;;;;;;2.40;1.50;;;;;;;20.87;81.45;100429.22;5030435;28;20224;-85
2023/07/16 06:12:18;;;;;;;3.65;1.65;;;;;;;21.00;79.88;100436.84;5025362;28;20216;-85
2023/07/16 06:14:45;;;;;;;2.58;1.55;;;;;;;21.08;77.64;100434.97;5030156;28;20638;-85
2023/07/16 06:17:11;;;;;;;2.15;1.45;;;;;;;21.20;77.44;100443.63;5030666;28;20651;-84
2023/07/16 06:19:39;;;;;;;2.92;1.88;;;;;;;21.36;76.39;100443.59;5024049;28;20662;-83
2023/07/16 06:22:07;;;;;;;1.95;1.77;;;;;;;21.46;74.92;100436.16;5031104;28;20250;-83
2023/07/16 06:24:42;;;;;;;2.72;1.52;;;;;;;21.63;73.85;100438.81;5031048;28;20202;-82
2023/07/16 06:27:08;;;;;;;2.33;1.60;;;;;;;21.76;72.96;100439.13;5031234;28;20210;-83
2023/07/16 06:29:35;;;;;;;2.35;1.52;;;;;;;21.89;71.28;100447.53;5031336;28;20296;-83
2023/07/16 06:32:02;;;;;;;2.65;1.50;;;;;;;21.99;70.29;100439.22;5030739;28;20220;-82
2023/07/16 06:34:30;;;;;;;4.97;1.98;;;;;;;22.06;68.19;100441.06;5032066;28;20202;-83
2023/07/16 06:36:58;;;;;;;3.75;1.75;;;;;;;22.11;67.07;100435.94;5031541;28;20276;-85
2023/07/16 06:39:24;;;;;;;3.38;1.70;;;;;;;22.19;65.77;100437.78;5032202;28;20209;-86
2023/07/16 06:41:51;;;;;;;2.28;1.90;;;;;;;22.30;64.87;100439.25;5032068;28;20230;-85
2023/07/16 06:44:20;;;;;;;2.70;1.83;;;;;;;22.37;64.04;100432.09;5031564;28;20220;-85
2023/07/16 06:46:50;;;;;;;3.67;1.80;;;;;;;22.45;62.64;100451.03;5031899;28;20272;-85
2023/07/16 06:49:16;;;;;;;2.67;1.67;;;;;;;22.44;61.74;100446.63;5031744;28;20205;-84
2023/07/16 06:51:43;;;;;;;4.45;1.90;;;;;;;22.48;61.50;100454.25;5031960;28;20226;-82
2023/07/16 06:54:11;;;;;;;2.85;1.60;;;;;;;22.49;61.46;100446.94;5031437;28;20210;-84
2023/07/16 06:56:37;;;;;;;4.18;1.83;;;;;;;22.52;61.56;100462.88;5030753;28;20210;-84
2023/07/16 06:59:04;;;;;;;2.83;1.60;;;;;;;22.60;61.07;100461.97;5030042;28;20206;-85
2023/07/16 07:01:30;;;;;;;3.95;1.70;;;;;;;22.67;60.28;100465.66;5024295;28;20245;-86
2023/07/16 07:03:57;;;;;;;2.25;1.20;;;;;;;22.77;60.75;100474.44;5026451;28;20213;-85
2023/07/16 07:06:23;;;;;;;2.65;1.40;;;;;;;22.91;58.28;100478.25;5031240;28;20317;-85
2023/07/16 07:08:50;;;;;;;3.15;1.45;;;;;;;22.90;57.21;100480.13;5025370;28;20202;-84
2023/07/16 07:11:17;;;;;;;4.80;1.50;;;;;;;22.97;57.40;100477.53;5027512;28;20272;-84
2023/07/16 07:13:44;;;;;;;2.80;1.40;;;;;;;23.07;56.68;100484.41;5023532;28;20204;-84
2023/07/16 07:16:10;;;;;;;4.57;1.70;;;;;;;23.12;55.45;100476.53;5026843;28;20228;-83
2023/07/16 07:18:37;;;;;;;1.75;1.30;;;;;;;23.21;53.88;100477.34;5028437;28;20212;-84
2023/07/16 07:21:03;;;;;;;6.88;1.77;;;;;;;23.25;53.19;100481.38;5028713;28;20226;-82
2023/07/16 07:23:30;;;;;;;4.03;1.58;;;;;;;23.30;52.95;100481.66;5022668;28;20235;-83
2023/07/16 07:25:56;;;;;;;4.25;1.58;;;;;;;23.34;52.88;100476.69;5024288;28;20233;-83
2023/07/16 07:28:26;;;;;;;1.85;1.30;;;;;;;23.44;53.74;100478.16;5026493;28;20214;-83
2023/07/16 07:30:53;;;;;;;2.67;1.48;;;;;;;23.58;53.18;100481.09;5028665;28;20717;-83
2023/07/16 07:33:21;;;;;;;3.58;1.40;;;;;;;23.69;52.89;100481.47;5027351;28;20576;-82
2023/07/16 07:35:48;;;;;;;2.30;1.40;;;;;;;23.79;52.29;100494.81;5029472;28;20214;-81
2023/07/16 07:38:14;;;;;;;3.55;1.73;;;;;;;23.87;50.20;100490.13;5028384;28;20206;-81
2023/07/16 07:40:43;;;;;;;3.85;1.42;;;;;;;23.93;49.91;100487.69;5027836;28;20243;-81
2023/07/16 07:43:10;;;;;;;3.60;1.30;;;;;;;24.01;49.77;100487.56;5031896;28;20360;-82
2023/07/16 07:45:39;;;;;;;3.55;1.60;;;;;;;24.14;48.35;100485.91;5026747;28;20214;-81
2023/07/16 07:48:06;;;;;;;5.00;1.40;;;;;;;24.18;46.74;100489.91;5032619;28;20216;-81
2023/07/16 07:50:35;;;;;;;4.07;1.73;;;;;;;24.13;44.88;100492.38;5030031;28;20225;-85
2023/07/16 07:53:02;;;;;;;3.85;1.50;;;;;;;24.17;44.73;100487.41;5035161;28;20214;-84
2023/07/16 07:55:28;;;;;;;3.58;1.67;;;;;;;24.22;45.04;100496.66;5034399;28;20209;-85
2023/07/16 07:57:55;;;;;;;5.47;1.50;;;;;;;24.27;44.62;100493.41;5028414;28;20202;-85
2023/07/16 08:00:24;;;;;;;4.18;1.80;;;;;;;24.29;44.14;100491.34;5036847;28;20230;-86
2023/07/16 08:02:51;;;;;;;4.47;1.60;;;;;;;24.33;43.48;100497.28;5033524;28;20220;-84
2023/07/16 08:05:21;;;;;;;5.20;1.42;;;;;;;24.38;43.59;100490.19;5035659;28;20225;-87
2023/07/16 08:07:51;;;;;;;2.22;1.50;;;;;;;24.47;43.95;100482.78;5036599;28;20232;-86
2023/07/16 08:10:17;;;;;;;3.35;1.25;;;;;;;24.55;43.42;100482.66;5036715;28;20226;-87
2023/07/16 08:12:44;;;;;;;2.47;1.60;;;;;;;24.69;44.03;100480.94;5037132;28;20210;-86
2023/07/16 08:15:25;;;;;;;4.22;1.60;;;;;;;24.85;44.48;100484.25;5036191;28;20662;-84
2023/07/16 08:17:52;;;;;;;4.18;1.52;;;;;;;25.03;43.23;100491.19;5036265;28;20560;-86
2023/07/16 08:20:19;;;;;;;2.67;1.65;;;;;;;25.05;43.10;100500.00;5035954;28;20241;-86
2023/07/16 08:22:48;;;;;;;8.38;1.55;;;;;;;25.11;42.19;100501.94;5035745;28;20210;-85
2023/07/16 08:25:15;;;;;;;2.88;1.52;;;;;;;25.13;42.37;100497.13;5036552;28;20198;-86
2023/07/16 08:27:41;;;;;;;2.92;1.58;;;;;;;25.18;42.25;100498.25;5037028;28;20229;-85
2023/07/16 08:30:09;;;;;;;2.83;1.70;;;;;;;25.18;40.83;100502.84;5036961;28;20214;-85
2023/07/16 08:32:37;;;;;;;3.75;1.52;;;;;;;25.16;41.17;100499.47;5035567;28;20202;-86
2023/07/16 08:35:15;;;;;;;4.80;1.77;;;;;;;25.24;41.80;100510.25;5036216;28;20206;-85
2023/07/16 08:37:44;;;;;;;4.07;1.50;;;;;;;25.27;41.34;100502.50;5035815;28;20268;-84
2023/07/16 08:40:14;;;;;;;2.80;1.52;;;;;;;25.37;39.87;100498.63;5036142;28;20230;-86
2023/07/16 08:42:45;;;;;;;3.72;1.30;;;;;;;25.40;40.26;100507.25;5035859;28;20205;-86
2023/07/16 08:45:12;;;;;;;3.20;1.50;;;;;;;25.42;39.84;100496.16;5034733;28;20206;-86
2023/07/16 08:47:38;;;;;;;3.90;1.83;;;;;;;25.44;39.76;100502.25;5033400;28;20226;-85
2023/07/16 08:50:11;;;;;;;3.65;1.70;;;;;;;25.49;40.14;100503.31;5034750;28;20226;-85
2023/07/16 08:52:38;;;;;;;3.65;1.58;;;;;;;25.57;39.83;100502.34;5042807;28;20205;-85
2023/07/16 08:55:06;;;;;;;3.08;1.38;;;;;;;25.60;39.66;100489.16;5033271;28;20442;-86
2023/07/16 08:57:33;;;;;;;2.88;1.30;;;;;;;25.69;39.89;100486.28;5034356;28;20221;-84
2023/07/16 09:00:01;;;;;;;2.38;1.50;;;;;;;25.84;40.50;100497.94;5019783;28;20254;-85
2023/07/16 09:02:28;;;;;;;2.88;1.67;;;;;;;25.99;40.58;100487.75;5024564;28;20695;-85
2023/07/16 09:04:54;;;;;;;3.92;1.75;;;;;;;26.11;40.15;100483.41;5033308;28;20221;-84
2023/07/16 09:07:22;;;;;;;2.10;1.40;;;;;;;26.14;39.45;100499.41;5033335;28;20609;-85
2023/07/16 09:09:58;;;;;;;3.72;1.40;;;;;;;26.08;37.73;100504.81;5033806;28;20210;-86
2023/07/16 09:12:26;;;;;;;3.03;1.42;;;;;;;26.00;36.55;100497.63;5024101;28;20889;-85
2023/07/16 09:14:52;;;;;;;2.70;1.38;;;;;;;25.96;37.78;100490.91;5033744;28;20379;-85
2023/07/16 09:17:23;;;;;;;4.20;1.80;;;;;;;25.98;37.54;100491.50;5034251;28;20205;-85
2023/07/16 09:19:51;;;;;;;5.35;1.50;;;;;;;25.99;37.48;100489.63;5032901;28;20198;-85
2023/07/16 09:22:20;;;;;;;2.58;1.50;;;;;;;26.02;37.03;100500.16;5025723;28;20202;-85
2023/07/16 09:24:48;;;;;;;3.40;1.60;;;;;;;26.03;36.79;100497.22;5032437;28;20216;-86
2023/07/16 09:27:15;;;;;;;3.03;1.48;;;;;;;26.06;37.43;100505.00;5025313;28;20228;-85
2023/07/16 09:29:41;;;;;;;3.08;1.50;;;;;;;26.03;37.12;100513.59;5033705;28;20198;-84
2023/07/16 09:32:08;;;;;;;3.88;1.73;;;;;;;26.04;37.34;100507.09;5034332;28;20205;-85
2023/07/16 09:34:35;;;;;;;3.33;1.70;;;;;;;26.10;37.25;100505.44;5034054;28;20671;-85
2023/07/16 09:37:03;;;;;;;2.13;1.50;;;;;;;26.10;37.52;100511.75;5034177;28;20201;-85
2023/07/16 09:39:32;;;;;;;3.53;1.60;;;;;;;26.18;37.57;100510.72;5034926;28;20205;-85
2023/07/16 09:42:00;;;;;;;3.17;1.60;;;;;;;26.24;37.21;100523.59;5033264;28;20589;-85
2023/07/16 09:44:28;;;;;;;1.70;1.27;;;;;;;26.21;36.39;100511.19;5033073;28;20217;-85
2023/07/16 09:46:55;;;;;;;2.03;1.40;;;;;;;26.23;36.40;100514.56;5033386;28;20583;-85
2023/07/16 09:49:22;;;;;;;1.73;1.27;;;;;;;26.23;36.59;100514.56;5033795;28;20201;-84
2023/07/16 09:51:49;;;;;;;1.88;1.20;;;;;;;26.24;37.17;100518.97;5033129;28;20717;-85
2023/07/16 09:54:16;;;;;;;2.63;1.40;;;;;;;26.30;37.20;100522.81;5033151;28;20210;-85
2023/07/16 09:56:47;;;;;;;3.08;1.63;;;;;;;26.26;35.95;100519.63;5032127;28;20201;-84
2023/07/16 09:59:17;;;;;;;3.25;1.65;;;;;;;26.22;36.10;100522.94;5032412;28;20654;-84
2023/07/16 10:01:44;;;;;;;3.10;1.80;;;;;;;26.25;36.95;100520.66;5031328;28;20233;-85
2023/07/16 10:04:15;;;;;;;2.38;1.40;;;;;;;26.30;36.78;100520.09;5015520;28;20687;-84
2023/07/16 10:06:53;;;;;;;5.22;1.55;;;;;;;26.39;36.71;100513.41;5010459;28;20233;-84
2023/07/16 10:09:39;;;;;;;2.55;1.55;;;;;;;26.48;37.21;100523.13;5028888;28;20285;-85
2023/07/16 10:12:13;;;;;;;5.30;1.40;;;;;;;26.57;36.46;100523.75;5031307;28;20209;-85
2023/07/16 10:14:42;;;;;;;2.40;1.42;;;;;;;26.63;36.13;100528.41;5031799;28;20585;-85
2023/07/16 10:17:08;;;;;;;2.58;1.42;;;;;;;26.60;36.27;100531.56;5017459;28;20211;-84
2023/07/16 10:19:47;;;;;;;3.00;1.60;;;;;;;26.63;36.76;100528.41;5030957;28;20206;-84
2023/07/16 10:22:14;;;;;;;3.55;1.65;;;;;;;26.61;36.34;100528.63;5032346;28;20738;-85
2023/07/16 10:24:41;;;;;;;2.75;1.50;;;;;;;26.65;36.60;100531.78;5045330;28;20204;-84
2023/07/16 10:27:08;;;;;;;3.13;1.60;;;;;;;26.59;35.13;100529.88;5028658;28;20229;-84
2023/07/16 10:29:36;;;;;;;3.08;1.50;;;;;;;26.57;35.27;100535.53;5031003;28;20212;-84
2023/07/16 10:32:07;;;;;;;3.15;1.50;;;;;;;26.63;34.80;100550.28;5031020;28;20641;-84
2023/07/16 10:34:37;;;;;;;1.95;1.35;;;;;;;26.65;34.46;100545.44;5030104;28;20202;-84
2023/07/16 10:37:07;;;;;;;2.78;1.50;;;;;;;26.70;34.96;100523.81;5032653;28;20639;-84
2023/07/16 10:39:33;;;;;;;3.60;1.63;;;;;;;26.82;35.25;100537.72;5023760;28;20229;-84
2023/07/16 10:42:00;;;;;;;2.92;1.60;;;;;;;26.91;34.83;100540.06;5037488;28;20279;-85
2023/07/16 10:44:28;;;;;;;3.97;1.70;;;;;;;27.02;35.00;100543.28;5030580;28;20225;-85
2023/07/16 10:46:55;;;;;;;2.72;1.60;;;;;;;27.06;34.83;100539.91;5032366;28;20336;-86
2023/07/16 10:49:29;;;;;;;5.20;1.83;;;;;;;27.12;34.83;100538.25;5033284;28;20280;-84
2023/07/16 10:51:55;;;;;;;2.72;1.88;;;;;;;27.16;34.82;100545.84;5032251;28;20741;-84
2023/07/16 10:54:23;;;;;;;2.58;1.63;;;;;;;27.24;35.10;100552.97;5033301;28;20198;-84
2023/07/16 10:56:51;;;;;;;3.78;1.77;;;;;;;27.29;35.13;100543.09;5032105;28;20621;-84
2023/07/16 10:59:21;;;;;;;3.03;1.70;;;;;;;27.33;35.11;100545.44;5032334;28;20206;-85
2023/07/16 11:01:47;;;;;;;2.85;1.70;;;;;;;27.40;35.52;100551.75;5032091;28;20221;-85
2023/07/16 11:04:14;;;;;;;2.28;1.80;;;;;;;27.42;34.87;100553.22;5024581;28;20220;-84
2023/07/16 11:06:45;;;;;;;2.80;1.65;;;;;;;27.42;34.57;100555.09;5032755;28;20217;-85
2023/07/16 11:09:12;;;;;;;3.35;1.77;;;;;;;27.41;34.41;100557.00;5034145;28;20206;-84
2023/07/16 11:11:40;;;;;;;4.07;2.08;;;;;;;27.39;34.35;100564.59;5033304;28;20226;-85
2023/07/16 11:14:08;;;;;;;4.47;2.22;;;;;;;27.37;33.82;100555.75;5033157;28;20217;-84
2023/07/16 11:16:36;;;;;;;3.50;2.10;;;;;;;27.30;33.70;100550.25;5020566;28;20570;-84
2023/07/16 11:19:04;;;;;;;2.53;1.70;;;;;;;27.27;34.00;100545.22;5028962;28;20206;-84
2023/07/16 11:21:31;;;;;;;3.38;2.10;;;;;;;27.29;33.92;100553.22;5035769;28;20218;-85
2023/07/16 11:24:09;;;;;;;3.35;2.15;;;;;;;27.29;33.84;100548.56;5041000;28;20559;-85
2023/07/16 11:26:36;;;;;;;2.78;1.83;;;;;;;27.28;33.47;100557.00;5036094;28;21612;-84
2023/07/16 11:29:13;;;;;;;3.83;2.13;;;;;;;27.38;34.27;100562.91;5027304;28;20593;-85
2023/07/16 11:31:41;;;;;;;3.15;1.92;;;;;;;27.45;33.68;100562.91;5035266;28;20221;-84
2023/07/16 11:34:08;;;;;;;2.38;1.88;;;;;;;27.43;33.38;100545.84;5035405;28;20206;-84